createdAt,value
2019-06-08T00:00:50.118Z,95283.59
2019-06-08T00:03:20.674Z,95281.77
2019-06-08T00:05:50.351Z,95280.02
2019-06-08T00:08:20.970Z,95279.69
2019-06-08T00:10:50.507Z,95278.62
2019-06-08T00:13:21.309Z,95284.66
2019-06-08T00:15:50.780Z,95296.90
2019-06-08T00:18:21.555Z,95302.12
2019-06-08T00:20:51.237Z,95297.61
2019-06-08T00:23:21.965Z,95306.23
2019-06-08T00:25:51.531Z,95301.30
2019-06-08T00:28:22.393Z,95305.95
2019-06-08T00:30:52.003Z,95311.28
2019-06-08T00:33:22.601Z,95314.57
2019-06-08T00:35:52.218Z,95313.64
2019-06-08T00:38:22.967Z,95319.33
2019-06-08T00:40:52.845Z,95326.98
2019-06-08T00:43:23.671Z,95337.54
2019-06-08T00:45:53.232Z,95333.11
2019-06-08T00:48:22.757Z,95351.28
2019-06-08T00:50:52.200Z,95353.98
2019-06-08T00:53:21.689Z,95361.59
2019-06-08T00:55:51.182Z,95351.64
2019-06-08T00:58:21.922Z,95361.83
2019-06-08T01:00:51.502Z,95365.77
2019-06-08T01:03:21.685Z,95368.45
2019-06-08T01:05:51.223Z,95368.29
2019-06-08T01:08:22.152Z,95377.42
2019-06-08T01:10:51.954Z,95376.98
2019-06-08T01:13:22.832Z,95385.86
2019-06-08T01:15:52.466Z,95378.03
2019-06-08T01:18:22.958Z,95380.52
2019-06-08T01:20:53.309Z,95386.20
2019-06-08T01:23:23.487Z,95388.40
2019-06-08T01:25:52.968Z,95384.58
2019-06-08T01:28:22.525Z,95386.64
2019-06-08T01:30:52.360Z,95397.11
2019-06-08T01:33:22.510Z,95400.06
2019-06-08T01:35:52.005Z,95395.37
2019-06-08T01:38:21.507Z,95405.74
2019-06-08T01:40:51.005Z,95404.14
2019-06-08T01:43:21.756Z,95410.75
2019-06-08T01:45:51.361Z,95411.90
2019-06-08T01:48:22.344Z,95413.84
2019-06-08T01:50:51.896Z,95417.63
2019-06-08T01:53:22.682Z,95420.51
2019-06-08T01:55:52.246Z,95419.75
2019-06-08T01:58:23.262Z,95416.72
2019-06-08T02:00:52.769Z,95421.44
2019-06-08T02:03:22.270Z,95426.84
2019-06-08T02:05:51.749Z,95432.09
2019-06-08T02:08:21.791Z,95424.55
2019-06-08T02:10:51.291Z,95427.61
2019-06-08T02:13:20.799Z,95429.52
2019-06-08T02:15:50.262Z,95424.98
2019-06-08T02:18:35.629Z,95437.81
2019-06-08T02:20:50.944Z,95443.93
2019-06-08T02:23:20.491Z,95441.47
2019-06-08T02:25:49.986Z,95444.73
2019-06-08T02:28:19.464Z,95437.95
2019-06-08T02:30:48.940Z,95440.31
2019-06-08T02:33:18.446Z,95444.75
2019-06-08T02:35:47.939Z,95452.73
2019-06-08T02:38:17.424Z,95455.75
2019-06-08T02:40:46.984Z,95451.86
2019-06-08T02:43:16.494Z,95446.38
2019-06-08T02:45:46.038Z,95453.12
2019-06-08T02:48:15.534Z,95462.74
2019-06-08T02:50:57.416Z,95461.17
2019-06-08T02:53:29.593Z,95465.55
2019-06-08T02:55:59.727Z,95462.74
2019-06-08T02:58:31.116Z,95468.31
2019-06-08T03:01:01.197Z,95471.16
2019-06-08T03:03:33.816Z,95468.81
2019-06-08T03:06:03.918Z,95472.16
2019-06-08T03:08:39.099Z,95483.55
2019-06-08T03:11:09.246Z,95481.58
2019-06-08T03:13:42.364Z,95484.75
2019-06-08T03:16:11.223Z,95482.11
2019-06-08T03:18:42.579Z,95493.09
2019-06-08T03:21:11.911Z,95497.88
2019-06-08T03:23:43.226Z,95497.51
2019-06-08T03:26:12.642Z,95498.01
2019-06-08T03:28:44.231Z,95504.11
2019-06-08T03:31:13.408Z,95509.27
2019-06-08T03:33:53.340Z,95506.79
2019-06-08T03:36:14.097Z,95503.53
2019-06-08T03:38:44.750Z,95516.98
2019-06-08T03:41:14.336Z,95517.45
2019-06-08T03:43:43.868Z,95521.65
2019-06-08T03:46:13.386Z,95525.84
2019-06-08T03:48:45.775Z,95524.59
2019-06-08T03:51:14.075Z,95528.59
2019-06-08T03:53:45.076Z,95534.18
2019-06-08T03:56:14.787Z,95535.74
2019-06-08T03:58:45.804Z,95533.80
2019-06-08T04:01:15.517Z,95542.51
2019-06-08T04:03:46.199Z,95539.17
2019-06-08T04:06:15.975Z,95547.81
2019-06-08T04:08:47.469Z,95544.36
2019-06-08T04:11:16.650Z,95541.57
2019-06-08T04:13:47.105Z,95552.64
2019-06-08T04:16:16.983Z,95549.48
2019-06-08T04:18:46.956Z,95558.36
2019-06-08T04:21:16.535Z,95550.49
2019-06-08T04:23:47.187Z,95561.91
2019-06-08T04:26:16.871Z,95554.05
2019-06-08T04:28:47.323Z,95565.09
2019-06-08T04:31:17.607Z,95566.34
2019-06-08T04:33:47.101Z,95564.98
2019-06-08T04:36:16.566Z,95565.95
2019-06-08T04:38:47.630Z,95573.37
2019-06-08T04:41:17.265Z,95576.30
2019-06-08T04:43:47.813Z,95579.48
2019-06-08T04:46:17.959Z,95580.83
2019-06-08T04:48:49.672Z,95584.11
2019-06-08T04:51:18.655Z,95587.98
2019-06-08T04:53:49.544Z,95582.67
2019-06-08T04:56:19.299Z,95586.77
2019-06-08T04:58:51.041Z,95586.30
2019-06-08T05:01:20.007Z,95590.87
2019-06-08T05:03:50.125Z,95591.38
2019-06-08T05:06:19.929Z,95594.67
2019-06-08T05:08:49.738Z,95603.44
2019-06-08T05:11:19.317Z,95605.31
2019-06-08T05:13:49.658Z,95609.16
2019-06-08T05:16:19.520Z,95616.10
2019-06-08T05:18:49.656Z,95612.16
2019-06-08T05:21:19.377Z,95612.50
2019-06-08T05:23:57.993Z,95622.23
2019-06-08T05:26:20.142Z,95622.41
2019-06-08T05:28:49.791Z,95626.09
2019-06-08T05:31:19.270Z,95632.48
2019-06-08T05:33:49.723Z,95636.02
2019-06-08T05:36:19.346Z,95638.38
2019-06-08T05:38:49.881Z,95648.27
2019-06-08T05:41:19.567Z,95649.58
2019-06-08T05:43:49.994Z,95649.56
2019-06-08T05:46:19.619Z,95653.83
2019-06-08T05:48:50.334Z,95658.53
2019-06-08T05:51:20.059Z,95663.03
2019-06-08T05:53:50.189Z,95667.66
2019-06-08T05:56:20.194Z,95662.14
2019-06-08T05:58:50.353Z,95669.09
2019-06-08T06:01:20.030Z,95673.88
2019-06-08T06:03:51.811Z,95676.78
2019-06-08T06:06:20.955Z,95674.33
2019-06-08T06:08:50.923Z,95681.39
2019-06-08T06:11:20.501Z,95685.34
2019-06-08T06:13:51.357Z,95688.34
2019-06-08T06:16:21.066Z,95694.70
2019-06-08T06:18:52.226Z,95692.69
2019-06-08T06:21:21.955Z,95696.58
2019-06-08T06:23:51.643Z,95705.04
2019-06-08T06:26:21.132Z,95707.28
2019-06-08T06:28:51.793Z,95703.63
2019-06-08T06:31:21.440Z,95709.52
2019-06-08T06:33:52.284Z,95713.70
2019-06-08T06:36:21.974Z,95710.89
2019-06-08T06:38:52.232Z,95711.72
2019-06-08T06:41:21.827Z,95708.89
2019-06-08T06:43:52.170Z,95713.11
2019-06-08T06:46:21.807Z,95712.83
2019-06-08T06:48:52.561Z,95726.52
2019-06-08T06:51:26.256Z,95722.92
2019-06-08T06:53:53.475Z,95727.92
2019-06-08T06:56:22.947Z,95730.41
2019-06-08T06:58:53.588Z,95736.08
2019-06-08T07:01:23.275Z,95735.66
2019-06-08T07:03:54.236Z,95741.70
2019-06-08T07:06:23.801Z,95739.09
2019-06-08T07:08:54.445Z,95743.02
2019-06-08T07:11:24.239Z,95744.02
2019-06-08T07:13:55.028Z,95747.04
2019-06-08T07:16:24.614Z,95742.64
2019-06-08T07:18:54.511Z,95748.56
2019-06-08T07:21:24.186Z,95743.45
2019-06-08T07:23:55.909Z,95759.58
2019-06-08T07:26:24.909Z,95756.23
2019-06-08T07:28:55.380Z,95758.75
2019-06-08T07:31:25.085Z,95757.55
2019-06-08T07:33:55.697Z,95764.63
2019-06-08T07:36:25.286Z,95767.78
2019-06-08T07:38:55.503Z,95768.63
2019-06-08T07:41:25.120Z,95766.73
2019-06-08T07:43:54.611Z,95771.74
2019-06-08T07:46:24.106Z,95768.52
2019-06-08T07:48:54.419Z,95776.41
2019-06-08T07:51:24.422Z,95772.44
2019-06-08T07:53:53.992Z,95775.84
2019-06-08T07:56:23.466Z,95772.92
2019-06-08T07:58:53.283Z,95775.30
2019-06-08T08:01:35.862Z,95774.98
2019-06-08T08:03:54.227Z,95771.94
2019-06-08T08:06:23.720Z,95772.77
2019-06-08T08:08:54.672Z,95769.57
2019-06-08T08:11:24.988Z,95772.88
2019-06-08T08:13:54.840Z,95775.01
2019-06-08T08:16:24.351Z,95774.69
2019-06-08T08:18:53.825Z,95770.59
2019-06-08T08:21:26.423Z,95776.14
2019-06-08T08:23:55.934Z,95777.12
2019-06-08T08:26:27.270Z,95770.78
2019-06-08T08:29:01.511Z,95779.45
2019-06-08T08:31:28.424Z,95775.52
2019-06-08T08:34:00.858Z,95786.22
2019-06-08T08:36:31.260Z,95783.88
2019-06-08T08:39:02.352Z,95784.75
2019-06-08T08:41:31.575Z,95780.29
2019-06-08T08:44:04.281Z,95788.97
2019-06-08T08:46:32.274Z,95789.26
2019-06-08T08:49:09.504Z,95792.73
2019-06-08T08:51:32.950Z,95795.16
2019-06-08T08:54:05.242Z,95792.89
2019-06-08T08:56:34.892Z,95794.22
2019-06-08T08:59:04.618Z,95804.11
2019-06-08T09:01:34.101Z,95800.41
2019-06-08T09:04:05.150Z,95800.64
2019-06-08T09:06:34.981Z,95799.35
2019-06-08T09:09:08.664Z,95805.94
2019-06-08T09:11:40.830Z,95807.34
2019-06-08T09:14:13.791Z,95812.30
2019-06-08T09:16:39.607Z,95814.77
2019-06-08T09:19:09.108Z,95809.74
2019-06-08T09:21:38.597Z,95814.95
2019-06-08T09:24:08.142Z,95814.55
2019-06-08T09:26:38.183Z,95814.62
2019-06-08T09:29:11.057Z,95820.19
2019-06-08T09:31:39.258Z,95826.39
2019-06-08T09:34:14.763Z,95821.75
2019-06-08T09:36:40.810Z,95829.66
2019-06-08T09:39:12.992Z,95828.08
2019-06-08T09:41:41.597Z,95825.05
2019-06-08T09:44:11.927Z,95823.91
2019-06-08T09:46:41.543Z,95830.19
2019-06-08T09:49:11.779Z,95826.60
2019-06-08T09:51:41.666Z,95821.45
2019-06-08T09:54:12.839Z,95825.44
2019-06-08T09:56:42.343Z,95831.56
2019-06-08T09:59:14.912Z,95827.02
2019-06-08T10:01:43.008Z,95826.66
2019-06-08T10:04:12.497Z,95827.07
2019-06-08T10:06:41.975Z,95822.17
2019-06-08T10:09:11.605Z,95817.81
2019-06-08T10:11:41.093Z,95817.14
2019-06-08T10:14:12.475Z,95821.52
2019-06-08T10:16:41.832Z,95822.05
2019-06-08T10:19:11.322Z,95825.58
2019-06-08T10:21:43.173Z,95820.86
2019-06-08T10:24:12.049Z,95820.08
2019-06-08T10:26:41.593Z,95820.80
2019-06-08T10:29:11.066Z,95820.25
2019-06-08T10:31:43.607Z,95828.42
2019-06-08T10:34:12.106Z,95826.04
2019-06-08T10:36:41.749Z,95826.83
2019-06-08T10:39:12.096Z,95822.28
2019-06-08T10:41:41.722Z,95825.28
2019-06-08T10:44:13.802Z,95819.48
2019-06-08T10:46:42.507Z,95814.61
2019-06-08T10:49:14.458Z,95819.14
2019-06-08T10:51:43.214Z,95819.74
2019-06-08T10:54:12.726Z,95824.59
2019-06-08T10:56:42.224Z,95821.93
2019-06-08T10:59:12.322Z,95819.51
2019-06-08T11:01:42.246Z,95813.95
2019-06-08T11:04:11.797Z,95815.69
2019-06-08T11:06:41.240Z,95815.99
2019-06-08T11:09:13.238Z,95813.48
2019-06-08T11:11:42.081Z,95802.11
2019-06-08T11:14:12.929Z,95807.72
2019-06-08T11:16:42.988Z,95801.52
2019-06-08T11:19:13.731Z,95794.08
2019-06-08T11:21:43.547Z,95801.16
2019-06-08T11:24:23.731Z,95798.47
2019-06-08T11:26:44.818Z,95793.44
2019-06-08T11:29:14.319Z,95789.00
2019-06-08T11:31:43.851Z,95788.58
2019-06-08T11:34:13.364Z,95783.22
2019-06-08T11:36:42.827Z,95786.75
2019-06-08T11:39:12.879Z,95783.86
2019-06-08T11:41:42.513Z,95783.12
2019-06-08T11:44:14.652Z,95781.16
2019-06-08T11:46:43.275Z,95779.62
2019-06-08T11:49:15.027Z,95778.77
2019-06-08T11:51:44.082Z,95772.61
2019-06-08T11:54:32.013Z,95770.59
2019-06-08T11:56:45.223Z,95775.75
2019-06-08T11:59:15.749Z,95771.42
2019-06-08T12:01:45.239Z,95778.59
2019-06-08T12:04:14.711Z,95778.50
2019-06-08T12:06:44.198Z,95778.94
2019-06-08T12:09:14.124Z,95774.62
2019-06-08T12:11:43.633Z,95777.34
2019-06-08T12:14:14.401Z,95781.28
2019-06-08T12:16:43.974Z,95772.69
2019-06-08T12:19:16.712Z,95774.72
2019-06-08T12:21:44.662Z,95768.02
2019-06-08T12:24:14.495Z,95768.52
2019-06-08T12:26:44.036Z,95765.50
2019-06-08T12:29:14.992Z,95761.24
2019-06-08T12:31:44.767Z,95761.30
2019-06-08T12:34:16.239Z,95762.15
2019-06-08T12:36:48.135Z,95757.42
2019-06-08T12:39:19.689Z,95760.29
2019-06-08T12:41:48.429Z,95752.61
2019-06-08T12:44:20.360Z,95755.77
2019-06-08T12:46:49.186Z,95750.06
2019-06-08T12:49:19.202Z,95759.41
2019-06-08T12:51:51.736Z,95751.73
2019-06-08T12:54:21.220Z,95750.77
2019-06-08T12:56:50.708Z,95750.80
2019-06-08T12:59:22.827Z,95742.52
2019-06-08T13:01:51.467Z,95748.80
2019-06-08T13:04:23.354Z,95748.44
2019-06-08T13:06:52.182Z,95748.52
2019-06-08T13:09:21.670Z,95753.33
2019-06-08T13:11:51.235Z,95751.41
2019-06-08T13:14:20.889Z,95756.07
2019-06-08T13:16:53.056Z,95751.42
2019-06-08T13:19:21.605Z,95752.69
2019-06-08T13:21:51.070Z,95749.53
2019-06-08T13:24:20.571Z,95743.23
2019-06-08T13:26:50.741Z,95746.42
2019-06-08T13:29:22.008Z,95753.23
2019-06-08T13:31:51.762Z,95746.59
2019-06-08T13:34:24.077Z,95747.41
2019-06-08T13:36:52.504Z,95743.16
2019-06-08T13:39:23.123Z,95746.42
2019-06-08T13:41:52.737Z,95746.12
2019-06-08T13:44:22.239Z,95755.41
2019-06-08T13:46:51.815Z,95751.99
2019-06-08T13:49:25.516Z,95748.36
2019-06-08T13:51:52.487Z,95747.64
2019-06-08T13:54:23.043Z,95746.88
2019-06-08T13:56:53.141Z,95735.66
2019-06-08T13:59:26.271Z,95730.31
2019-06-08T14:01:53.824Z,95736.59
2019-06-08T14:04:23.754Z,95733.70
2019-06-08T14:06:53.587Z,95720.99
2019-06-08T14:09:23.406Z,95720.30
2019-06-08T14:11:52.878Z,95730.34
2019-06-08T14:14:23.052Z,95721.80
2019-06-08T14:16:53.729Z,95730.63
2019-06-08T14:19:24.477Z,95725.78
2019-06-08T14:21:54.408Z,95734.69
2019-06-08T14:24:28.034Z,95734.81
2019-06-08T14:26:55.109Z,95736.18
2019-06-08T14:29:25.963Z,95736.05
2019-06-08T14:31:57.601Z,95732.48
2019-06-08T14:34:29.068Z,95731.38
2019-06-08T14:36:59.186Z,95724.47
2019-06-08T14:39:31.538Z,95722.91
2019-06-08T14:42:00.195Z,95719.50
2019-06-08T14:44:32.186Z,95719.03
2019-06-08T14:47:02.591Z,95717.63
2019-06-08T14:49:34.974Z,95711.25
2019-06-08T14:52:03.292Z,95706.19
2019-06-08T14:54:35.158Z,95718.60
2019-06-08T14:57:03.979Z,95701.81
2019-06-08T14:59:33.480Z,95704.74
2019-06-08T15:02:03.440Z,95701.27
2019-06-08T15:04:36.530Z,95700.33
2019-06-08T15:07:04.200Z,95695.22
2019-06-08T15:09:33.845Z,95689.92
2019-06-08T15:12:03.399Z,95689.66
2019-06-08T15:14:35.281Z,95699.11
2019-06-08T15:17:04.098Z,95691.63
2019-06-08T15:19:33.562Z,95686.27
2019-06-08T15:22:03.302Z,95684.80
2019-06-08T15:24:33.155Z,95676.03
2019-06-08T15:27:02.656Z,95684.30
2019-06-08T15:29:32.843Z,95685.48
2019-06-08T15:32:02.384Z,95682.64
2019-06-08T15:34:33.121Z,95678.62
2019-06-08T15:37:02.734Z,95675.40
2019-06-08T15:39:34.061Z,95678.58
2019-06-08T15:42:03.423Z,95680.21
2019-06-08T15:44:33.911Z,95678.83
2019-06-08T15:47:03.487Z,95676.05
2019-06-08T15:52:14.384Z,95672.90
2019-06-08T15:54:43.854Z,95671.02
2019-06-08T15:57:13.324Z,95675.22
2019-06-08T15:59:42.825Z,95674.62
2019-06-08T16:02:12.295Z,95677.88
2019-06-08T16:04:42.056Z,95656.06
2019-06-08T16:07:11.588Z,95661.80
2019-06-08T16:09:41.065Z,95663.99
2019-06-08T16:12:10.549Z,95666.55
2019-06-08T16:14:41.490Z,95664.58
2019-06-08T16:17:11.191Z,95659.73
2019-06-08T16:19:40.674Z,95664.78
2019-06-08T16:22:10.157Z,95665.16
2019-06-08T16:24:39.632Z,95665.64
2019-06-08T16:27:09.119Z,95658.53
2019-06-08T16:29:39.269Z,95659.48
2019-06-08T16:32:09.055Z,95654.67
2019-06-08T16:34:39.617Z,95661.00
2019-06-08T16:37:09.299Z,95654.26
2019-06-08T16:39:39.051Z,95655.61
2019-06-08T16:42:08.607Z,95657.79
2019-06-08T16:44:38.612Z,95664.51
2019-06-08T16:47:08.169Z,95663.99
2019-06-08T16:49:37.646Z,95670.26
2019-06-08T16:52:07.161Z,95662.41
2019-06-08T16:54:37.276Z,95661.80
2019-06-08T16:57:10.723Z,95659.99
2019-06-08T16:59:38.691Z,95654.84
2019-06-08T17:02:08.928Z,95654.77
2019-06-08T17:04:39.193Z,95659.14
2019-06-08T17:07:08.690Z,95655.63
2019-06-08T17:09:38.209Z,95657.27
2019-06-08T17:12:07.655Z,95658.86
2019-06-08T17:14:38.387Z,95654.33
2019-06-08T17:17:08.214Z,95660.81
2019-06-08T17:19:38.484Z,95658.89
2019-06-08T17:22:08.045Z,95660.08
2019-06-08T17:24:38.908Z,95659.62
2019-06-08T17:27:08.409Z,95658.38
2019-06-08T17:29:39.016Z,95661.59
2019-06-08T17:32:08.507Z,95655.16
2019-06-08T17:34:38.183Z,95650.48
2019-06-08T17:37:07.637Z,95651.73
2019-06-08T17:39:37.942Z,95655.95
2019-06-08T17:42:07.580Z,95655.47
2019-06-08T17:44:38.227Z,95654.53
2019-06-08T17:47:07.751Z,95652.72
2019-06-08T17:49:38.580Z,95650.87
2019-06-08T17:52:08.128Z,95647.45
2019-06-08T17:54:38.946Z,95641.72
2019-06-08T17:57:08.471Z,95647.98
2019-06-08T17:59:37.958Z,95646.14
2019-06-08T18:02:10.654Z,95643.50
2019-06-08T18:04:40.958Z,95644.31
2019-06-08T18:07:10.348Z,95647.31
2019-06-08T18:09:41.783Z,95637.16
2019-06-08T18:12:11.123Z,95634.09
2019-06-08T18:14:43.886Z,95639.50
2019-06-08T18:17:13.573Z,95636.70
2019-06-08T18:19:46.192Z,95646.91
2019-06-08T18:22:15.551Z,95643.84
2019-06-08T18:24:47.723Z,95648.66
2019-06-08T18:27:18.029Z,95651.15
2019-06-08T18:29:48.662Z,95646.06
2019-06-08T18:32:18.460Z,95648.82
2019-06-08T18:34:48.168Z,95653.55
2019-06-08T18:37:18.371Z,95654.38
2019-06-08T18:39:49.395Z,95653.23
2019-06-08T18:42:20.413Z,95649.06
2019-06-08T18:44:49.959Z,95646.61
2019-06-08T18:47:19.447Z,95644.14
2019-06-08T18:49:49.214Z,95646.81
2019-06-08T18:52:18.712Z,95641.99
2019-06-08T18:54:49.569Z,95644.52
2019-06-08T18:57:19.395Z,95644.13
2019-06-08T18:59:52.972Z,95647.66
2019-06-08T19:02:20.092Z,95652.67
2019-06-08T19:04:49.760Z,95644.79
2019-06-08T19:07:19.240Z,95653.87
2019-06-08T19:09:49.839Z,95658.80
2019-06-08T19:12:19.814Z,95661.86
2019-06-08T19:14:52.124Z,95663.25
2019-06-08T19:17:21.460Z,95667.78
2019-06-08T19:19:52.360Z,95671.00
2019-06-08T19:22:22.123Z,95660.96
2019-06-08T19:24:51.667Z,95670.97
2019-06-08T19:27:21.168Z,95674.83
2019-06-08T19:29:51.713Z,95679.45
2019-06-08T19:32:21.393Z,95676.09
2019-06-08T19:34:54.010Z,95678.30
2019-06-08T19:37:22.179Z,95685.68
2019-06-08T19:39:51.654Z,95692.91
2019-06-08T19:42:35.737Z,95691.66
2019-06-08T19:45:00.938Z,95694.55
2019-06-08T19:47:23.562Z,95703.91
2019-06-08T19:49:54.803Z,95706.23
2019-06-08T19:52:24.250Z,95711.45
2019-06-08T19:54:54.152Z,95715.47
2019-06-08T19:57:23.739Z,95716.08
2019-06-08T19:59:53.255Z,95718.06
2019-06-08T20:02:22.809Z,95719.50
2019-06-08T20:04:53.291Z,95713.28
2019-06-08T20:07:23.150Z,95714.78
2019-06-08T20:09:53.689Z,95710.44
2019-06-08T20:12:23.417Z,95718.64
2019-06-08T20:14:53.775Z,95715.59
2019-06-08T20:17:23.361Z,95712.48
2019-06-08T20:19:53.430Z,95723.10
2019-06-08T20:22:23.012Z,95723.63
2019-06-08T20:24:55.777Z,95722.48
2019-06-08T20:27:24.744Z,95720.16
2019-06-08T20:29:54.329Z,95717.12
2019-06-08T20:32:23.816Z,95716.32
2019-06-08T20:34:53.770Z,95722.48
2019-06-08T20:37:23.269Z,95717.94
2019-06-08T20:40:05.795Z,95720.52
2019-06-08T20:42:23.964Z,95719.41
2019-06-08T20:44:53.458Z,95717.76
2019-06-08T20:47:22.928Z,95714.97
2019-06-08T20:49:53.467Z,95719.94
2019-06-08T20:52:22.978Z,95713.42
2019-06-08T20:54:53.545Z,95717.22
2019-06-08T20:57:23.131Z,95713.98
2019-06-08T20:59:54.003Z,95716.38
2019-06-08T21:02:23.835Z,95709.33
2019-06-08T21:04:55.817Z,95706.22
2019-06-08T21:07:24.558Z,95710.02
2019-06-08T21:09:55.233Z,95711.34
2019-06-08T21:12:25.257Z,95707.40
2019-06-08T21:14:55.504Z,95709.37
2019-06-08T21:17:27.384Z,95714.30
2019-06-08T21:19:57.989Z,95714.45
2019-06-08T21:22:27.892Z,95710.70
2019-06-08T21:25:00.091Z,95713.32
2019-06-08T21:27:29.791Z,95711.84
2019-06-08T21:30:06.638Z,95712.66
2019-06-08T21:32:30.483Z,95712.83
2019-06-08T21:35:00.430Z,95703.78
2019-06-08T21:37:29.955Z,95703.57
2019-06-08T21:40:03.993Z,95702.41
2019-06-08T21:42:30.650Z,95708.61
2019-06-08T21:45:02.209Z,95709.69
2019-06-08T21:47:31.373Z,95712.03
2019-06-08T21:50:00.867Z,95711.81
2019-06-08T21:52:30.352Z,95717.05
2019-06-08T21:55:00.621Z,95711.77
2019-06-08T21:57:30.173Z,95711.48
2019-06-08T22:00:21.588Z,95709.48
2019-06-08T22:02:30.864Z,95714.28
2019-06-08T22:05:04.197Z,95710.48
2019-06-08T22:07:31.556Z,95712.98
2019-06-08T22:10:01.041Z,95715.97
2019-06-08T22:12:30.511Z,95718.56
2019-06-08T22:15:01.015Z,95715.42
2019-06-08T22:17:30.607Z,95718.02
2019-06-08T22:20:01.056Z,95718.16
2019-06-08T22:22:30.585Z,95726.41
2019-06-08T22:25:01.096Z,95719.67
2019-06-08T22:27:30.637Z,95722.88
2019-06-08T22:30:01.314Z,95723.02
2019-06-08T22:32:31.337Z,95727.64
2019-06-08T22:35:01.833Z,95726.33
2019-06-08T22:37:31.771Z,95723.39
2019-06-08T22:40:01.275Z,95723.62
2019-06-08T22:42:30.760Z,95723.84
2019-06-08T22:45:02.586Z,95722.70
2019-06-08T22:47:32.348Z,95721.70
2019-06-08T22:50:02.508Z,95712.52
2019-06-08T22:52:33.110Z,95718.08
2019-06-08T22:55:06.706Z,95717.31
2019-06-08T22:57:33.795Z,95722.91
2019-06-08T23:00:14.562Z,95717.70
2019-06-08T23:02:35.046Z,95715.11
2019-06-08T23:05:09.117Z,95724.33
2019-06-08T23:07:37.762Z,95720.78
2019-06-08T23:10:09.130Z,95722.57
2019-06-08T23:12:38.727Z,95719.67
2019-06-08T23:15:09.839Z,95718.73
2019-06-08T23:17:39.338Z,95716.72
2019-06-08T23:20:09.270Z,95713.20
2019-06-08T23:22:38.883Z,95712.61
2019-06-08T23:25:09.426Z,95717.95
2019-06-08T23:27:39.231Z,95713.89
2019-06-08T23:30:10.601Z,95711.05
2019-06-08T23:32:40.230Z,95712.66
2019-06-08T23:35:09.955Z,95717.38
2019-06-08T23:37:39.585Z,95716.16
2019-06-08T23:40:09.491Z,95719.44
2019-06-08T23:42:39.030Z,95715.24
2019-06-08T23:45:10.730Z,95717.16
2019-06-08T23:47:40.494Z,95708.14
2019-06-08T23:50:11.640Z,95708.52
2019-06-08T23:52:41.328Z,95714.01
2019-06-08T23:55:11.958Z,95716.91
2019-06-08T23:57:41.594Z,95712.45
